Time;durP1;ratioP1;P1;durP2;ratioP2;P2;SDS_P1;SDS_P2;PMS_P1;PMS_P2;Temp;Humidity;BMP_temperature;BMP_pressure;BME280_temperature;BME280_humidity;BME280_pressure;Samples;Min_cycle;Max_cycle;Signal;HPM_P1;HPM_P2
2023/10/01 00:00:36;;;;;;;14.20;4.18;;;;;;;;;;4874470;29;20506;-79
2023/10/01 00:03:06;;;;;;;15.52;5.15;;;;;;;;;;4863398;29;20486;-79
2023/10/01 00:05:32;;;;;;;14.35;4.00;;;;;;;;;;4885096;29;20107;-79
2023/10/01 00:07:59;;;;;;;15.75;4.40;;;;;;;;;;4896265;29;20032;-79
2023/10/01 00:10:26;;;;;;;18.55;5.35;;;;;;;;;;4895216;29;20031;-79
2023/10/01 00:12:53;;;;;;;15.07;3.67;;;;;;;;;;4896398;29;20017;-79
2023/10/01 00:15:21;;;;;;;25.92;5.53;;;;;;;;;;4878901;29;20040;-79
2023/10/01 00:17:48;;;;;;;14.80;4.93;;;;;;;;;;4894845;29;20139;-79
2023/10/01 00:20:18;;;;;;;13.52;3.80;;;;;;;;;;4889179;29;20104;-78
2023/10/01 00:22:50;;;;;;;13.35;4.22;;;;;;;;;;4892510;29;20091;-78
2023/10/01 00:25:17;;;;;;;13.55;4.25;;;;;;;;;;4896731;29;20081;-78
2023/10/01 00:27:43;;;;;;;15.20;4.43;;;;;;;;;;4880718;29;20032;-79
2023/10/01 00:30:10;;;;;;;15.68;4.55;;;;;;;;;;4896391;29;20087;-80
2023/10/01 00:32:40;;;;;;;14.00;4.63;;;;;;;;;;4891357;29;20017;-80
2023/10/01 00:35:07;;;;;;;14.30;4.03;;;;;;;;;;4893192;29;20029;-77
2023/10/01 00:37:36;;;;;;;18.05;5.00;;;;;;;;;;4881947;29;20072;-77
2023/10/01 00:40:05;;;;;;;11.00;3.85;;;;;;;;;;4892202;29;20080;-78
2023/10/01 00:42:33;;;;;;;17.83;4.75;;;;;;;;;;4888185;29;20017;-78
2023/10/01 00:44:59;;;;;;;11.90;4.68;;;;;;;;;;4893546;29;20029;-74
2023/10/01 00:47:28;;;;;;;13.77;4.57;;;;;;;;;;4895943;29;20033;-77
2023/10/01 00:49:54;;;;;;;19.77;6.00;;;;;;;;;;4897086;29;20136;-74
2023/10/01 00:52:23;;;;;;;17.23;5.20;;;;;;;;;;4894763;29;20490;-77
2023/10/01 00:54:54;;;;;;;16.17;4.28;;;;;;;;;;4893474;29;20111;-77
2023/10/01 00:57:21;;;;;;;14.27;5.78;;;;;;;;;;4885523;29;20029;-77
2023/10/01 00:59:47;;;;;;;14.80;5.25;;;;;;;;;;4881597;29;20029;-77
2023/10/01 01:02:15;;;;;;;11.60;3.85;;;;;;;;;;4880463;29;20049;-77
2023/10/01 01:04:45;;;;;;;16.38;4.40;;;;;;;;;;4891972;29;20103;-77
2023/10/01 01:07:21;;;;;;;13.77;5.47;;;;;;;;;;4889136;29;20040;-77
2023/10/01 01:09:48;;;;;;;16.70;7.47;;;;;;;;;;4895809;29;20056;-83
2023/10/01 01:12:15;;;;;;;16.98;5.45;;;;;;;;;;4896031;29;20024;-81
2023/10/01 01:14:44;;;;;;;12.35;5.20;;;;;;;;;;4896350;29;20132;-83
2023/10/01 01:17:11;;;;;;;16.52;5.10;;;;;;;;;;4888712;29;20131;-77
2023/10/01 01:19:37;;;;;;;11.80;4.60;;;;;;;;;;4872764;29;20481;-76
2023/10/01 01:22:03;;;;;;;16.58;5.75;;;;;;;;;;4896133;29;20116;-76
2023/10/01 01:24:30;;;;;;;16.52;5.05;;;;;;;;;;4895320;29;20131;-76
2023/10/01 01:27:00;;;;;;;21.65;6.40;;;;;;;;;;4888903;29;20048;-77
2023/10/01 01:29:33;;;;;;;14.57;4.60;;;;;;;;;;4876996;29;20039;-78
2023/10/01 01:32:07;;;;;;;21.10;6.63;;;;;;;;;;4890970;29;20032;-77
2023/10/01 01:34:34;;;;;;;17.15;5.97;;;;;;;;;;4890866;29;20048;-77
2023/10/01 01:37:06;;;;;;;15.35;5.57;;;;;;;;;;4882718;29;20065;-77
2023/10/01 01:39:53;;;;;;;18.08;6.88;;;;;;;;;;4882823;29;20037;-77
2023/10/01 01:42:21;;;;;;;24.38;10.85;;;;;;;;;;4892121;29;20035;-79
2023/10/01 01:44:48;;;;;;;17.83;6.65;;;;;;;;;;4895279;29;20028;-81
2023/10/01 01:47:16;;;;;;;49.58;29.98;;;;;;;;;;4894442;29;20120;-77
2023/10/01 01:49:43;;;;;;;19.65;7.82;;;;;;;;;;4893924;29;20041;-77
2023/10/01 01:52:10;;;;;;;16.25;6.93;;;;;;;;;;4887616;29;20025;-77
2023/10/01 01:54:40;;;;;;;18.52;8.10;;;;;;;;;;4875439;29;20482;-77
2023/10/01 01:57:13;;;;;;;19.58;7.10;;;;;;;;;;4892029;29;20036;-77
2023/10/01 01:59:41;;;;;;;18.25;7.45;;;;;;;;;;4894144;29;20035;-76
2023/10/01 02:02:09;;;;;;;24.77;7.35;;;;;;;;;;4889232;29;20064;-76
2023/10/01 02:04:40;;;;;;;16.02;8.10;;;;;;;;;;4889166;29;20111;-77
2023/10/01 02:07:17;;;;;;;16.67;8.20;;;;;;;;;;4894996;29;20037;-77
2023/10/01 02:09:47;;;;;;;25.23;8.25;;;;;;;;;;4893844;29;20037;-77
2023/10/01 02:12:23;;;;;;;19.05;8.63;;;;;;;;;;4884694;29;20029;-77
2023/10/01 02:14:54;;;;;;;23.70;8.70;;;;;;;;;;4885708;29;20043;-77
2023/10/01 02:17:22;;;;;;;21.77;8.48;;;;;;;;;;4894118;29;20119;-78
2023/10/01 02:19:48;;;;;;;24.27;9.10;;;;;;;;;;4896701;29;20032;-77
2023/10/01 02:22:16;;;;;;;19.40;8.60;;;;;;;;;;4889528;29;20060;-77
2023/10/01 02:27:09;;;;;;;16.15;7.90;;;;;;;;;;4890486;29;20040;-76
2023/10/01 02:29:45;;;;;;;20.70;8.93;;;;;;;;;;4894176;29;20064;-77
2023/10/01 02:32:14;;;;;;;23.27;9.70;;;;;;;;;;4894113;29;20037;-78
2023/10/01 02:34:40;;;;;;;19.45;9.20;;;;;;;;;;4886289;29;20460;-77
2023/10/01 02:37:08;;;;;;;21.25;9.07;;;;;;;;;;4893204;29;20036;-77
2023/10/01 02:39:37;;;;;;;20.73;9.15;;;;;;;;;;4893384;29;20039;-76
2023/10/01 02:42:21;;;;;;;19.05;7.93;;;;;;;;;;4893269;29;20395;-77
2023/10/01 02:44:48;;;;;;;20.70;9.10;;;;;;;;;;4894304;29;20036;-76
2023/10/01 02:47:16;;;;;;;25.00;9.38;;;;;;;;;;4870350;29;20049;-78
2023/10/01 02:50:15;;;;;;;21.90;9.18;;;;;;;;;;4859415;29;20029;-78
2023/10/01 02:52:39;;;;;;;27.88;9.57;;;;;;;;;;4891938;29;20063;-76
2023/10/01 02:55:17;;;;;;;19.27;8.98;;;;;;;;;;4891344;29;20056;-77
2023/10/01 02:57:44;;;;;;;17.92;8.90;;;;;;;;;;4878028;29;20041;-77
2023/10/01 03:00:20;;;;;;;23.00;9.80;;;;;;;;;;4892488;29;20028;-77
2023/10/01 03:02:53;;;;;;;20.10;9.23;;;;;;;;;;4894054;29;20129;-78
2023/10/01 03:05:28;;;;;;;20.92;8.40;;;;;;;;;;4898012;29;20367;-77
2023/10/01 03:08:03;;;;;;;17.85;8.30;;;;;;;;;;4894799;29;20108;-77
2023/10/01 03:10:37;;;;;;;21.80;7.68;;;;;;;;;;4893041;29;20537;-78
2023/10/01 03:13:16;;;;;;;21.73;8.75;;;;;;;;;;4894812;29;20038;-77
2023/10/01 03:15:44;;;;;;;20.42;8.55;;;;;;;;;;4896573;29;20076;-77
2023/10/01 03:26:07;;;;;;;18.42;7.28;;;;;;;;;;4894717;29;20043;-77
2023/10/01 03:28:35;;;;;;;15.80;7.57;;;;;;;;;;4895590;29;20084;-77
2023/10/01 03:31:12;;;;;;;17.60;7.82;;;;;;;;;;4896235;29;20028;-77
2023/10/01 03:33:39;;;;;;;17.70;8.15;;;;;;;;;;4873393;29;20043;-76
2023/10/01 03:36:11;;;;;;;19.67;8.13;;;;;;;;;;4869726;29;20041;-77
2023/10/01 03:38:44;;;;;;;16.67;8.23;;;;;;;;;;4891907;29;20156;-76
2023/10/01 03:41:20;;;;;;;19.10;8.07;;;;;;;;;;4895802;29;20100;-78
2023/10/01 03:43:47;;;;;;;18.35;8.20;;;;;;;;;;4896074;29;20123;-76
2023/10/01 03:46:14;;;;;;;20.52;7.45;;;;;;;;;;4891359;29;20157;-76
2023/10/01 03:48:59;;;;;;;17.83;7.18;;;;;;;;;;4896223;29;20399;-76
2023/10/01 03:51:52;;;;;;;13.07;7.22;;;;;;;;;;4886891;29;20032;-76
2023/10/01 03:54:15;;;;;;;18.92;6.93;;;;;;;;;;4892866;29;20060;-77
2023/10/01 03:56:47;;;;;;;20.00;8.10;;;;;;;;;;4892491;29;20321;-77
2023/10/01 03:59:16;;;;;;;15.68;6.90;;;;;;;;;;4892585;29;20036;-76
2023/10/01 04:02:27;;;;;;;18.30;7.82;;;;;;;;;;4891003;29;20274;-78
2023/10/01 04:04:56;;;;;;;20.05;7.03;;;;;;;;;;4890475;29;20139;-76
2023/10/01 04:07:24;;;;;;;15.82;6.75;;;;;;;;;;4894376;29;20104;-78
2023/10/01 04:09:51;;;;;;;15.82;6.93;;;;;;;;;;4891268;29;20068;-77
2023/10/01 04:12:20;;;;;;;19.98;7.15;;;;;;;;;;4893794;29;20131;-77
2023/10/01 04:14:49;;;;;;;15.05;7.20;;;;;;;;;;4895752;29;20029;-77
2023/10/01 04:17:19;;;;;;;18.13;7.15;;;;;;;;;;4894090;29;20483;-77
2023/10/01 04:19:49;;;;;;;14.57;6.53;;;;;;;;;;4878848;29;20391;-77
2023/10/01 04:22:21;;;;;;;17.73;6.85;;;;;;;;;;4875039;29;20040;-78
2023/10/01 04:25:00;;;;;;;16.55;6.95;;;;;;;;;;4888756;29;20032;-76
2023/10/01 04:27:30;;;;;;;19.80;6.80;;;;;;;;;;4892910;29;20037;-76
2023/10/01 04:29:58;;;;;;;13.20;6.30;;;;;;;;;;4895868;29;20040;-77
2023/10/01 04:32:27;;;;;;;19.35;6.78;;;;;;;;;;4894572;29;20028;-77
2023/10/01 04:34:53;;;;;;;16.95;6.40;;;;;;;;;;4895713;29;20120;-76
2023/10/01 04:37:36;;;;;;;15.50;6.55;;;;;;;;;;4894723;29;20458;-77
2023/10/01 04:40:03;;;;;;;15.70;7.07;;;;;;;;;;4894664;29;20043;-77
2023/10/01 04:42:29;;;;;;;15.02;6.30;;;;;;;;;;4893466;29;20052;-76
2023/10/01 04:44:55;;;;;;;14.43;5.97;;;;;;;;;;4877572;29;20052;-77
2023/10/01 04:47:31;;;;;;;20.38;6.30;;;;;;;;;;4874174;29;20407;-77
2023/10/01 04:49:57;;;;;;;24.20;6.82;;;;;;;;;;4895096;29;20179;-78
2023/10/01 04:52:24;;;;;;;12.80;6.57;;;;;;;;;;4893885;29;20996;-77
2023/10/01 04:54:50;;;;;;;19.05;6.40;;;;;;;;;;4894963;29;20040;-77
2023/10/01 04:57:19;;;;;;;17.77;6.70;;;;;;;;;;4873084;29;20048;-78
2023/10/01 04:59:57;;;;;;;13.95;6.07;;;;;;;;;;4888680;29;20029;-77
2023/10/01 05:02:23;;;;;;;16.38;7.13;;;;;;;;;;4893037;29;20083;-77
2023/10/01 05:04:51;;;;;;;17.75;6.68;;;;;;;;;;4893303;29;20487;-77
2023/10/01 05:07:17;;;;;;;17.45;6.93;;;;;;;;;;4893661;29;20085;-77
2023/10/01 05:09:43;;;;;;;16.40;6.70;;;;;;;;;;4877371;29;20479;-76
2023/10/01 05:12:11;;;;;;;17.27;6.65;;;;;;;;;;4891663;29;20487;-76
2023/10/01 05:14:56;;;;;;;14.32;6.88;;;;;;;;;;4878446;29;20025;-78
2023/10/01 05:17:22;;;;;;;19.17;6.65;;;;;;;;;;4898489;29;20047;-77
2023/10/01 05:19:51;;;;;;;18.95;7.28;;;;;;;;;;4893506;29;20060;-76
2023/10/01 05:22:17;;;;;;;22.02;7.22;;;;;;;;;;4893732;29;20049;-76
2023/10/01 05:24:48;;;;;;;14.18;6.28;;;;;;;;;;4886341;29;20590;-76
2023/10/01 05:27:22;;;;;;;17.65;7.25;;;;;;;;;;4877665;29;20041;-76
2023/10/01 05:29:49;;;;;;;16.83;7.10;;;;;;;;;;4890455;29;20032;-76
2023/10/01 05:32:18;;;;;;;14.88;7.43;;;;;;;;;;4893197;29;20056;-76
2023/10/01 05:34:47;;;;;;;28.77;8.40;;;;;;;;;;4894289;29;20047;-77
2023/10/01 05:37:16;;;;;;;14.15;6.63;;;;;;;;;;4893087;29;20115;-76
2023/10/01 05:39:55;;;;;;;14.55;6.97;;;;;;;;;;4877672;29;20029;-76
2023/10/01 05:42:33;;;;;;;22.20;7.28;;;;;;;;;;4893515;29;20040;-77
2023/10/01 05:44:59;;;;;;;13.80;7.25;;;;;;;;;;4893630;29;20032;-79
2023/10/01 05:47:41;;;;;;;18.75;8.25;;;;;;;;;;4871101;29;20047;-76
2023/10/01 05:50:10;;;;;;;16.27;7.23;;;;;;;;;;4891254;29;20053;-76
2023/10/01 05:52:41;;;;;;;16.38;7.10;;;;;;;;;;4892503;29;20325;-76
2023/10/01 05:55:08;;;;;;;19.20;6.13;;;;;;;;;;4894308;29;20049;-76
2023/10/01 05:57:34;;;;;;;18.13;7.13;;;;;;;;;;4885265;29;20161;-76
2023/10/01 06:00:00;;;;;;;20.67;6.78;;;;;;;;;;4894523;29;20048;-77
2023/10/01 06:02:41;;;;;;;26.80;7.72;;;;;;;;;;4891302;29;20511;-76
2023/10/01 06:05:22;;;;;;;19.33;7.20;;;;;;;;;;4891905;29;20029;-76
2023/10/01 06:07:48;;;;;;;17.23;6.63;;;;;;;;;;4883813;29;20060;-77
2023/10/01 06:10:14;;;;;;;15.70;6.72;;;;;;;;;;4892849;29;20036;-78
2023/10/01 06:12:50;;;;;;;15.20;6.53;;;;;;;;;;4884654;29;20053;-79
2023/10/01 06:15:20;;;;;;;16.40;6.40;;;;;;;;;;4883616;29;20518;-78
2023/10/01 06:17:46;;;;;;;17.90;7.82;;;;;;;;;;4894007;29;20051;-79
2023/10/01 06:20:23;;;;;;;23.63;8.68;;;;;;;;;;4889898;29;20040;-79
2023/10/01 06:22:49;;;;;;;24.83;10.77;;;;;;;;;;4888150;29;20065;-79
2023/10/01 06:25:16;;;;;;;13.63;5.50;;;;;;;;;;4885040;29;20118;-82
2023/10/01 06:27:42;;;;;;;16.02;6.20;;;;;;;;;;4890680;29;20036;-78
2023/10/01 06:30:09;;;;;;;21.30;7.35;;;;;;;;;;4884294;29;20161;-78
2023/10/01 06:32:36;;;;;;;17.05;6.43;;;;;;;;;;4890244;29;20063;-79
2023/10/01 06:35:02;;;;;;;13.15;5.97;;;;;;;;;;4885917;29;20120;-79
2023/10/01 06:37:50;;;;;;;14.95;6.78;;;;;;;;;;4881430;29;20045;-79
2023/10/01 06:40:31;;;;;;;22.63;6.82;;;;;;;;;;4880553;29;20039;-78
2023/10/01 06:42:58;;;;;;;17.37;6.47;;;;;;;;;;4888745;29;20028;-78
2023/10/01 06:45:38;;;;;;;30.88;9.98;;;;;;;;;;4891675;29;20364;-77
2023/10/01 06:48:14;;;;;;;17.08;6.60;;;;;;;;;;4882147;29;20037;-78
2023/10/01 06:50:43;;;;;;;16.60;6.68;;;;;;;;;;4894610;29;20040;-78
2023/10/01 06:53:09;;;;;;;13.60;6.30;;;;;;;;;;4897681;29;20052;-78
2023/10/01 06:55:36;;;;;;;17.73;7.10;;;;;;;;;;4883108;29;20113;-80
2023/10/01 06:58:06;;;;;;;19.17;6.57;;;;;;;;;;4887086;29;20146;-80
2023/10/01 07:00:36;;;;;;;17.27;6.40;;;;;;;;;;4866292;29;20036;-80
2023/10/01 07:03:19;;;;;;;17.38;7.85;;;;;;;;;;4903480;29;20055;-80
2023/10/01 07:05:46;;;;;;;18.73;6.65;;;;;;;;;;4895720;29;20059;-81
2023/10/01 07:08:13;;;;;;;17.65;7.03;;;;;;;;;;4889040;29;20082;-80
2023/10/01 07:10:39;;;;;;;14.32;6.32;;;;;;;;;;4887484;29;20431;-82
2023/10/01 07:13:05;;;;;;;18.17;7.90;;;;;;;;;;4881217;29;20120;-81
2023/10/01 07:15:34;;;;;;;16.75;6.90;;;;;;;;;;4894479;29;20063;-81
2023/10/01 07:18:13;;;;;;;16.13;6.95;;;;;;;;;;4882340;29;20040;-79
2023/10/01 07:20:42;;;;;;;23.25;7.95;;;;;;;;;;4881761;29;20048;-78
2023/10/01 07:23:08;;;;;;;16.65;6.43;;;;;;;;;;4878492;29;20040;-78
2023/10/01 07:25:43;;;;;;;16.90;7.38;;;;;;;;;;4888682;29;20029;-79
2023/10/01 07:28:12;;;;;;;15.10;5.88;;;;;;;;;;4879130;29;20072;-79
2023/10/01 07:30:45;;;;;;;17.40;5.88;;;;;;;;;;4878487;29;20040;-79
2023/10/01 07:33:14;;;;;;;15.65;6.05;;;;;;;;;;4871294;29;20047;-79
2023/10/01 07:35:44;;;;;;;15.30;6.22;;;;;;;;;;4896323;29;20111;-78
2023/10/01 07:38:13;;;;;;;16.75;7.00;;;;;;;;;;4895993;29;20032;-77
2023/10/01 07:40:57;;;;;;;19.25;8.45;;;;;;;;;;4870083;29;20037;-78
2023/10/01 07:43:26;;;;;;;18.98;7.03;;;;;;;;;;4892536;29;20037;-75
2023/10/01 07:45:57;;;;;;;15.50;7.13;;;;;;;;;;4891040;29;20052;-80
2023/10/01 07:48:24;;;;;;;17.13;6.30;;;;;;;;;;4892741;29;20033;-74
2023/10/01 07:50:53;;;;;;;16.25;7.03;;;;;;;;;;4860961;29;20119;-80
2023/10/01 07:53:20;;;;;;;17.73;6.47;;;;;;;;;;4890269;29;20068;-79
2023/10/01 07:55:49;;;;;;;14.68;6.22;;;;;;;;;;4889476;29;20534;-78
2023/10/01 07:58:23;;;;;;;16.63;6.10;;;;;;;;;;4898214;29;20052;-78
2023/10/01 08:00:58;;;;;;;19.80;6.55;;;;;;;;;;4893036;29;20063;-78
2023/10/01 08:05:57;;;;;;;19.02;7.40;;;;;;;;;;4884215;29;20040;-80
2023/10/01 08:08:47;;;;;;;;;;;16.30;99.90;;;;;;4881928;29;20037;-76
2023/10/01 08:13:58;;;;;;;17.30;6.65;;;;;;;;;;4889468;29;20051;-76
2023/10/01 08:16:24;;;;;;;21.08;7.13;;;;;;;;;;4884085;29;20033;-76
2023/10/01 08:18:59;;;;;;;20.85;6.63;;;;;;;;;;4892596;29;20173;-76
2023/10/01 08:21:38;;;;;;;19.17;6.78;;;;;;;;;;4886090;29;20037;-76
2023/10/01 08:24:18;;;;;;;17.05;6.15;;;;;;;;;;4893089;29;20088;-76
2023/10/01 08:26:44;;;;;;;22.40;7.88;;;;;;;;;;4891669;29;20068;-76
2023/10/01 08:29:14;;;;;;;20.15;6.90;;;;;;;;;;4891718;29;20505;-78
2023/10/01 08:32:23;;;;;;;19.92;8.43;;;;;;;;;;4885830;29;20488;-85
2023/10/01 08:34:50;;;;;;;25.10;8.00;;;;;;;;;;4886783;29;20041;-79
2023/10/01 08:37:22;;;;;;;20.75;7.13;;;;;;;;;;4891784;29;20483;-79
2023/10/01 08:39:48;;;;;;;;;;;18.20;99.90;;;;;;4877681;29;20039;-81
2023/10/01 08:42:16;;;;;;;23.00;7.32;;;;;;;;;;4878461;29;20018;-77
2023/10/01 08:44:49;;;;;;;18.92;7.35;;;;;;;;;;4869683;29;20068;-76
2023/10/01 08:47:27;;;;;;;16.98;7.18;;;;;;;;;;4882497;29;20390;-79
2023/10/01 08:49:55;;;;;;;20.73;7.32;;;;;;;;;;4890235;29;20033;-77
2023/10/01 08:52:25;;;;;;;16.88;7.63;;;;;;;;;;4888074;29;20033;-74
2023/10/01 08:54:56;;;;;;;21.52;7.30;;;;;;;;;;4889147;29;20032;-73
2023/10/01 08:57:37;;;;;;;19.60;7.00;;;;;;;;;;4890996;29;20111;-74
2023/10/01 09:00:20;;;;;;;17.83;6.47;;;;;;;;;;4894411;29;20044;-73
2023/10/01 09:02:50;;;;;;;16.90;6.45;;;;;;;;;;4874449;29;20053;-74
2023/10/01 09:05:26;;;;;;;21.23;7.03;;;;;;;;;;4895565;29;20040;-75
2023/10/01 09:10:39;;;;;;;19.83;6.57;;;;;;;;;;4886820;29;20051;-74
2023/10/01 09:13:08;;;;;;;20.83;7.30;;;;;;;;;;4894335;29;20029;-74
2023/10/01 09:15:43;;;;;;;13.88;6.45;;;;;;;;;;4892145;29;20037;-74
2023/10/01 09:18:10;;;;;;;27.27;13.60;;;;;;;;;;4891473;29;20035;-75
2023/10/01 09:20:59;;;;;;;18.23;7.63;;;;;;;;;;4886429;29;20081;-77
2023/10/01 09:23:54;;;;;;;27.02;12.20;;;;;;;;;;4888653;29;20036;-77
2023/10/01 09:26:37;;;;;;;22.33;6.90;;;;;;;;;;4891230;29;20040;-80
2023/10/01 09:29:13;;;;;;;;;;;;;;;;;;4886943;29;20061;-80
2023/10/01 09:31:52;;;;;;;22.77;7.72;;;;;;;;;;4884626;29;19916;-80
2023/10/01 09:34:31;;;;;;;18.40;6.72;;;;;;;;;;4893461;29;20041;-84
2023/10/01 09:37:03;;;;;;;19.48;7.15;;;;;;;;;;4892333;29;20040;-77
2023/10/01 09:39:41;;;;;;;19.08;6.82;;;;;;;;;;4893798;29;20040;-77
2023/10/01 09:42:24;;;;;;;22.33;8.88;;;;;;;;;;4876856;29;20471;-79
2023/10/01 09:44:54;;;;;;;15.15;6.63;;;;;;;;;;4891420;29;20060;-78
2023/10/01 09:47:24;;;;;;;18.13;7.10;;;;;;;;;;4894166;29;20060;-78
2023/10/01 09:49:52;;;;;;;18.75;7.65;;;;;;;;;;4894253;29;20379;-78
2023/10/01 09:52:26;;;;;;;15.02;6.72;;;;;;;;;;4888882;29;20074;-78
2023/10/01 09:54:55;;;;;;;15.90;7.70;;;;;;;;;;4888872;29;20032;-79
2023/10/01 09:57:24;;;;;;;18.17;7.05;;;;;;;;;;4881399;29;20043;-77
2023/10/01 09:59:51;;;;;;;17.73;7.32;;;;;;;;;;4876288;29;20396;-78
2023/10/01 10:02:27;;;;;;;16.30;8.05;;;;;;;;;;4891879;29;20436;-78
2023/10/01 10:04:54;;;;;;;20.70;7.78;;;;;;;;;;4891864;29;20104;-78
2023/10/01 10:07:24;;;;;;;21.30;7.35;;;;;;;;;;4890136;29;20085;-77
2023/10/01 10:09:54;;;;;;;18.35;7.50;;;;;;;;;;4878636;29;20037;-79
2023/10/01 10:12:36;;;;;;;21.20;7.55;;;;;;;;;;4891569;29;20036;-78
2023/10/01 10:15:02;;;;;;;17.30;8.53;;;;;;;;;;4894405;29;20040;-75
2023/10/01 10:17:38;;;;;;;18.58;7.18;;;;;;;;;;4893725;29;20304;-82
2023/10/01 10:23:13;;;;;;;20.67;7.97;;;;;;;;;;4839132;29;20038;-78
2023/10/01 10:25:49;;;;;;;22.90;8.02;;;;;;;;;;4889374;29;20049;-81
2023/10/01 10:28:29;;;;;;;15.27;6.65;;;;;;;;;;4899615;29;20398;-79
2023/10/01 10:31:14;;;;;;;20.27;7.57;;;;;;;;;;4880168;29;20479;-81
2023/10/01 10:34:00;;;;;;;19.08;8.02;;;;;;;;;;4895206;29;20037;-79
2023/10/01 10:36:50;;;;;;;16.10;6.80;;;;;;;;;;4880895;29;20058;-80
2023/10/01 10:39:40;;;;;;;18.35;7.43;;;;;;;;;;4895020;29;20063;-80
2023/10/01 10:42:28;;;;;;;19.48;8.05;;;;;;;;;;4898496;29;20029;-82
2023/10/01 10:45:22;;;;;;;17.30;7.18;;;;;;;;;;4896370;29;20172;-82
2023/10/01 10:48:01;;;;;;;29.30;12.75;;;;;;;;;;4900053;29;20120;-85
2023/10/01 10:50:39;;;;;;;24.65;11.95;;;;;;;;;;4889427;29;20355;-81
2023/10/01 10:53:14;;;;;;;23.38;8.65;;;;;;;;;;4896156;29;20501;-79
2023/10/01 10:55:51;;;;;;;16.85;7.90;;;;;;;;;;4872490;29;20455;-78
2023/10/01 10:58:19;;;;;;;26.42;8.60;;;;;;;;;;4875755;29;20786;-77
2023/10/01 11:00:46;;;;;;;19.73;7.32;;;;;;;;;;4890241;29;20028;-77
2023/10/01 11:03:12;;;;;;;18.65;7.75;;;;;;;;;;4876948;29;20052;-77
2023/10/01 11:05:59;;;;;;;18.65;8.75;;;;;;;;;;4870660;29;20043;-77
2023/10/01 11:08:27;;;;;;;18.00;8.43;;;;;;;;;;4895881;29;20051;-77
2023/10/01 11:10:54;;;;;;;17.30;7.38;;;;;;;;;;4877507;29;20048;-77
2023/10/01 11:13:37;;;;;;;18.05;7.53;;;;;;;;;;4896412;29;20069;-78
2023/10/01 11:16:13;;;;;;;19.90;7.18;;;;;;;;;;4896138;29;20447;-77
2023/10/01 11:18:41;;;;;;;21.92;8.10;;;;;;;;;;4892377;29;20036;-77
2023/10/01 11:21:11;;;;;;;21.45;9.07;;;;;;;;;;4889095;29;20025;-79
2023/10/01 11:23:40;;;;;;;20.38;7.88;;;;;;;;;;4895804;29;20036;-77
2023/10/01 11:26:06;;;;;;;15.02;7.75;;;;;;;;;;4892152;29;20028;-77
2023/10/01 11:28:41;;;;;;;18.88;8.85;;;;;;;;;;4897166;29;20033;-78
2023/10/01 11:31:30;;;;;;;25.85;13.63;;;22.20;99.90;;;;;;4892734;29;20482;-80
2023/10/01 11:34:03;;;;;;;19.98;8.68;;;;;;;;;;4892107;29;20115;-80
2023/10/01 11:36:35;;;;;;;17.98;7.82;;;;;;;;;;4892487;29;20472;-80
2023/10/01 11:39:05;;;;;;;19.42;8.25;;;;;;;;;;4869974;29;20520;-81
2023/10/01 11:41:43;;;;;;;20.27;7.93;;;;;;;;;;4886528;29;20052;-78
2023/10/01 11:44:24;;;;;;;16.23;7.85;;;;;;;;;;4880358;29;20044;-78
2023/10/01 11:46:57;;;;;;;20.30;8.88;;;;;;;;;;4895464;29;20032;-79
2023/10/01 11:49:34;;;;;;;16.85;8.13;;;;;;;;;;4891921;29;20112;-79
2023/10/01 11:52:25;;;;;;;19.30;8.25;;;;;;;;;;4888859;29;20135;-79
2023/10/01 11:54:55;;;;;;;16.33;7.20;;;;;;;;;;4891611;29;20044;-78
2023/10/01 11:57:22;;;;;;;18.85;8.25;;;;;;;;;;4871125;29;20515;-81
2023/10/01 11:59:55;;;;;;;18.35;8.23;;;;;;;;;;4895638;29;20043;-80
2023/10/01 12:02:31;;;;;;;18.77;9.00;;;;;;;;;;4896357;29;20045;-79
2023/10/01 12:04:58;;;;;;;21.38;9.60;;;;;;;;;;4895430;29;20079;-83
2023/10/01 12:07:27;;;;;;;16.17;8.25;;;;;;;;;;4892073;29;20032;-77
2023/10/01 12:09:56;;;;;;;18.95;7.65;;;;;;;;;;4877991;29;20069;-78
2023/10/01 12:12:27;;;;;;;17.88;8.50;;;;;;;;;;4876490;29;20032;-80
2023/10/01 12:14:54;;;;;;;21.77;8.25;;;;;;;;;;4914877;29;20040;-80
2023/10/01 12:17:23;;;;;;;16.15;7.65;;;;;;;;;;4871084;29;20041;-80
2023/10/01 12:19:59;;;;;;;15.73;8.00;;;;;;;;;;4896031;29;20055;-77
2023/10/01 12:22:26;;;;;;;20.40;8.63;;;;;;;;;;4896782;29;20115;-77
2023/10/01 12:25:02;;;;;;;21.20;8.52;;;;;;;;;;4897348;29;20031;-78
2023/10/01 12:27:37;;;;;;;16.13;7.90;;;;;;;;;;4897218;29;20040;-80
2023/10/01 12:30:41;;;;;;;18.15;7.78;;;;;;;;;;4896983;29;20068;-78
2023/10/01 12:33:02;;;;;;;16.95;8.45;;;;;;;;;;4889618;29;20040;-79
2023/10/01 12:35:28;;;;;;;17.70;7.95;;;;;;;;;;4896687;29;20032;-79
2023/10/01 12:40:36;;;;;;;18.20;8.40;;;;;;;;;;4896627;29;20048;-78
2023/10/01 12:45:50;;;;;;;17.83;8.93;;;;;;;;;;4891036;29;20089;-78
2023/10/01 12:48:20;;;;;;;19.60;8.02;;;;;;;;;;4891820;29;20044;-78
2023/10/01 12:50:59;;;;;;;16.67;8.15;;;;;;;;;;4895455;29;20032;-74
2023/10/01 12:53:27;;;;;;;19.92;9.57;;;;;;;;;;4895014;29;20410;-74
2023/10/01 12:55:53;;;;;;;29.63;8.98;;;;;;;;;;4890530;29;20043;-74
2023/10/01 12:58:22;;;;;;;19.58;8.95;;;;;;;;;;4894983;29;20036;-75
2023/10/01 13:00:50;;;;;;;17.73;9.25;;;;;;;;;;4875639;29;20592;-75
2023/10/01 13:03:17;;;;;;;16.55;8.48;;;;;;;;;;4891782;29;20058;-75
2023/10/01 13:05:47;;;;;;;20.30;8.55;;;;;;;;;;4897064;29;20025;-75
2023/10/01 13:08:27;;;;;;;20.08;9.18;;;;;;;;;;4870671;29;20043;-75
2023/10/01 13:10:54;;;;;;;21.55;9.50;;;;;;;;;;4889771;29;20033;-74
2023/10/01 13:13:20;;;;;;;20.98;9.48;;;;;;;;;;4882518;29;20033;-71
2023/10/01 13:15:54;;;;;;;22.67;8.75;;;;;;;;;;4891941;29;20028;-74
2023/10/01 13:18:28;;;;;;;21.23;9.38;;;;;;;;;;4894256;29;20080;-74
2023/10/01 13:23:28;;;;;;;18.60;8.90;;;;;;;;;;4888994;29;20235;-75
2023/10/01 13:26:09;;;;;;;24.30;9.30;;;;;;;;;;4883898;29;20029;-79
2023/10/01 13:28:56;;;;;;;21.48;9.25;;;;;;;;;;4883551;29;20043;-80
2023/10/01 13:34:06;;;;;;;18.92;9.13;;;;;;;;;;4892353;29;20044;-80
2023/10/01 13:36:47;;;;;;;19.67;8.95;;;;;;;;;;4894967;29;20044;-81
2023/10/01 14:09:48;;;;;;;21.92;9.32;;;;;;;;;;4839570;29;20038;-79
2023/10/01 14:12:15;;;;;;;22.75;9.43;;;;;;;;;;4879742;29;20444;-78
2023/10/01 14:14:44;;;;;;;21.67;10.20;;;;;;;;;;4891065;29;20431;-78
2023/10/01 14:17:14;;;;;;;17.88;8.75;;;;;;;;;;4891421;29;20051;-79
2023/10/01 14:19:51;;;;;;;18.70;9.27;;;;;;;;;;4890936;29;20067;-80
2023/10/01 14:22:20;;;;;;;16.90;8.50;;;;;;;;;;4891995;29;20050;-80
2023/10/01 14:24:47;;;;;;;18.33;7.88;;;;;;;;;;4889980;29;20077;-82
2023/10/01 14:27:35;;;;;;;22.60;9.40;;;;;;;;;;4873451;29;20093;-80
2023/10/01 14:32:51;;;;;;;17.77;9.13;;;;;;;;;;4891852;29;20044;-82
2023/10/01 14:35:18;;;;;;;17.98;8.38;;;;;;;;;;4887397;29;20071;-80
2023/10/01 14:37:54;;;;;;;18.95;9.23;;;;;;;;;;4891336;29;20048;-80
2023/10/01 14:40:27;;;;;;;20.13;8.02;;;;;;;;;;4885045;29;20116;-79
2023/10/01 14:42:59;;;;;;;20.08;9.10;;;;;;;;;;4867061;29;20060;-79
2023/10/01 14:45:42;;;;;;;18.35;8.75;;;;;;;;;;4893346;29;20113;-79
2023/10/01 14:48:08;;;;;;;18.75;9.27;;;;;;;;;;4886460;29;20060;-79
2023/10/01 14:50:41;;;;;;;18.48;8.63;;;;;;;;;;4887972;29;20119;-79
2023/10/01 14:53:12;;;;;;;17.65;8.68;;;;;;;;;;4891253;29;20072;-80
2023/10/01 14:55:42;;;;;;;20.08;8.75;;;;;;;;;;4887431;29;20057;-80
2023/10/01 14:58:15;;;;;;;20.80;9.25;;;;;;;;;;4891911;29;20041;-80
2023/10/01 15:00:54;;;;;;;21.95;8.88;;;;;;;;;;4892862;29;20033;-80
2023/10/01 15:03:22;;;;;;;20.33;9.30;;;;;;;;;;4892568;29;20091;-80
2023/10/01 15:05:48;;;;;;;21.45;7.80;;;;;;;;;;4895209;29;20399;-80
2023/10/01 15:08:15;;;;;;;15.77;7.80;;;;;;;;;;4896039;29;20033;-79
2023/10/01 15:10:49;;;;;;;19.38;8.55;;;;;;;;;;4892089;29;20100;-79
2023/10/01 15:13:16;;;;;;;19.33;8.18;;;;;;;;;;4888533;29;20025;-79
2023/10/01 15:15:42;;;;;;;23.33;8.93;;;;;;;;;;4895687;29;20076;-79
2023/10/01 15:18:17;;;;;;;21.17;8.73;;;;;;;;;;4896173;29;20064;-80
2023/10/01 15:20:50;;;;;;;22.77;8.40;;;;;;;;;;4892958;29;20029;-79
2023/10/01 15:23:17;;;;;;;23.35;8.48;;;;;;;;;;4892835;29;20049;-80
2023/10/01 15:25:43;;;;;;;19.55;8.38;;;;;;;;;;4893088;29;20041;-80
2023/10/01 15:28:09;;;;;;;16.40;8.40;;;;;;;;;;4867476;29;20033;-80
2023/10/01 15:30:38;;;;;;;18.58;8.57;;;;;;;;;;4893153;29;20174;-80
2023/10/01 15:33:15;;;;;;;17.70;8.18;;;;;;;;;;4893516;29;20400;-80
2023/10/01 15:35:48;;;;;;;20.02;9.45;;;;;;;;;;4878460;29;20036;-80
2023/10/01 15:38:26;;;;;;;21.67;8.77;;;;;;;;;;4892929;29;20059;-80
2023/10/01 15:40:52;;;;;;;19.73;8.32;;;;;;;;;;4895266;29;20174;-80
2023/10/01 15:43:20;;;;;;;17.33;8.25;;;;;;;;;;4892001;29;20080;-80
2023/10/01 15:45:47;;;;;;;17.60;8.20;;;;;;;;;;4896304;29;20494;-80
2023/10/01 15:48:17;;;;;;;22.45;8.95;;;;;;;;;;4882998;29;20083;-83
2023/10/01 15:50:44;;;;;;;21.00;8.63;;;;;;;;;;4878713;29;20029;-83
2023/10/01 15:53:21;;;;;;;19.13;8.70;;;;;;;;;;4872198;29;20033;-80
2023/10/01 15:55:59;;;;;;;19.35;8.20;;;;;;;;;;4886221;29;20063;-78
2023/10/01 15:58:25;;;;;;;16.35;7.57;;;;;;;;;;4891622;29;20039;-77
2023/10/01 16:00:52;;;;;;;19.00;7.93;;;;;;;;;;4893914;29;20116;-78